Evergreen, CO (80439)

11:26 AM MDT on April 26, 2015 (GMT -0600)
Hiwan Hills | | Change Station
CLOSE
Current Station
Personal Weather Station
Location: Evergreen, CO
Elevation: 7234 ft
Nearby Weather Stations

Elev 7234 ft 39.64 °N, 105.32 °W | Updated 7 minutes ago

Rain
Rain
35.2 °F
Feels Like 35 °F
N
0.0
Wind Variable Wind from West

Today
High -- | Low -- °F
--% Chance of Precip.
Yesterday
High -- | Low -- °F
Precip. -- in
6:08 AM 7:50 PM
First Quarter, 57% visible
Pressure 29.89 in
Visibility 8.0 miles
Clouds Scattered Clouds 700 ft
Overcast 1000 ft
Windchill 35 °F
Dew Point 35 °F
Humidity 99%
Rainfall 0.18 in
Snow Depth Not available.
UV 3 out of 12
Pollen 3.10 out of 12
Air Quality Not available.
Flu Activity Sporadic
METAR KBJC 261650Z 08004KT 8SM -RA SCT007 OVC010 07/06 A2989

More Conditions Fewer Conditions

Pressure 29.89 in
Visibility 8.0 miles
Clouds Scattered Clouds 700 ft
Overcast 1000 ft
Windchill 35 °F
Dew Point 35 °F
Humidity 99%
Rainfall 0.18 in
Snow Depth Not available.
UV 3 out of 12
Pollen 3.10 out of 12
Air Quality Not available.
Flu Activity Sporadic
METAR KBJC 261650Z 08004KT 8SM -RA SCT007 OVC010 07/06 A2989

More Conditions Fewer Conditions

The full scope of the disaster following a powerful 7.8-magnitude earthquake in Nepal may not come into view for days, but global charities are already sending emergency aid. Click to see how you can help.
Nowcast | as of 10:07 am MDT on April 26, 2015

Rain and snow will spread across the foothills through the noon hour. The snow level will range between 7800 and 9000 feet...lowest in the heavier showers. The snow may be heavy with a quick inch or two of slushy accumulation. Rain will occur in lower elevations with rainfall rates of one to two tenths of an inch per hour.

×

10-Day Weather Forecast

Almanac

Astronomy

Apr. 26, 2015 Rise Set
Actual Time
Civil Twilight
Nautical Twilight
Astronomical Twilight
Moon
Length of Visible Light
Length of Day
Tomorrow will be .
, % of the Moon is Illuminated

Today's Extremes

State Highs State Lows

Community

WunderPhotos

Upload Photos

1,817,063 photos uploaded!

WunderBlogs® & News

Nearby

Air Quality

  Air Quality AQ Index Pollutant
Not available.

Snow Depth

Station Depth Elevation

Earthquake Activity

City Distance Mag. Time & Date
Minimum magnitude displayed is 2.5.

Coastal Water Temperatures

Place Temperature

Stations

Nearby Weather Stations

Station Location Temp. Windchill Dew Point Humidity Wind Precip. Elev Updated Type